sensor_id;sensor_type;location;lat;lon;timestamp;P1;durP1;ratioP1;P2;durP2;ratioP2
51764;SDS011;37835;53.256;6.456;2022-09-01T00:00:44;4.18;;;1.60;;
51764;SDS011;37835;53.256;6.456;2022-09-01T00:03:16;3.25;;;1.02;;
51764;SDS011;37835;53.256;6.456;2022-09-01T00:05:42;3.05;;;1.10;;
51764;SDS011;37835;53.256;6.456;2022-09-01T00:08:10;1.42;;;1.13;;
51764;SDS011;37835;53.256;6.456;2022-09-01T00:10:37;1.70;;;1.10;;
51764;SDS011;37835;53.256;6.456;2022-09-01T00:13:03;8.20;;;1.60;;
51764;SDS011;37835;53.256;6.456;2022-09-01T00:15:31;3.63;;;1.17;;
51764;SDS011;37835;53.256;6.456;2022-09-01T00:17:58;2.33;;;1.00;;
51764;SDS011;37835;53.256;6.456;2022-09-01T00:20:23;1.38;;;1.20;;
51764;SDS011;37835;53.256;6.456;2022-09-01T00:22:49;3.80;;;1.20;;
51764;SDS011;37835;53.256;6.456;2022-09-01T00:25:15;1.40;;;1.20;;
51764;SDS011;37835;53.256;6.456;2022-09-01T00:27:44;5.50;;;1.33;;
51764;SDS011;37835;53.256;6.456;2022-09-01T00:30:10;1.95;;;1.13;;
51764;SDS011;37835;53.256;6.456;2022-09-01T00:32:36;2.60;;;1.20;;
51764;SDS011;37835;53.256;6.456;2022-09-01T00:35:02;1.80;;;1.30;;
51764;SDS011;37835;53.256;6.456;2022-09-01T00:37:29;1.67;;;1.30;;
51764;SDS011;37835;53.256;6.456;2022-09-01T00:39:54;1.73;;;1.23;;
51764;SDS011;37835;53.256;6.456;2022-09-01T00:42:20;2.28;;;1.63;;
51764;SDS011;37835;53.256;6.456;2022-09-01T00:44:46;2.35;;;1.33;;
51764;SDS011;37835;53.256;6.456;2022-09-01T00:47:12;3.40;;;1.65;;
51764;SDS011;37835;53.256;6.456;2022-09-01T00:49:40;1.40;;;1.30;;
51764;SDS011;37835;53.256;6.456;2022-09-01T00:52:10;5.20;;;1.58;;
51764;SDS011;37835;53.256;6.456;2022-09-01T00:54:41;5.40;;;1.50;;
51764;SDS011;37835;53.256;6.456;2022-09-01T00:57:10;1.40;;;1.30;;
51764;SDS011;37835;53.256;6.456;2022-09-01T00:59:48;1.92;;;1.33;;
51764;SDS011;37835;53.256;6.456;2022-09-01T01:02:22;3.75;;;1.30;;
51764;SDS011;37835;53.256;6.456;2022-09-01T01:04:49;3.22;;;1.40;;
51764;SDS011;37835;53.256;6.456;2022-09-01T01:07:17;2.05;;;1.10;;
51764;SDS011;37835;53.256;6.456;2022-09-01T01:09:46;1.20;;;1.20;;
51764;SDS011;37835;53.256;6.456;2022-09-01T01:12:14;1.60;;;1.15;;
51764;SDS011;37835;53.256;6.456;2022-09-01T01:14:43;3.05;;;1.98;;
51764;SDS011;37835;53.256;6.456;2022-09-01T01:17:11;1.67;;;1.42;;
51764;SDS011;37835;53.256;6.456;2022-09-01T01:19:43;2.30;;;1.20;;
51764;SDS011;37835;53.256;6.456;2022-09-01T01:25:37;1.27;;;1.17;;
51764;SDS011;37835;53.256;6.456;2022-09-01T01:28:13;1.40;;;1.30;;
51764;SDS011;37835;53.256;6.456;2022-09-01T01:30:45;1.27;;;1.10;;
51764;SDS011;37835;53.256;6.456;2022-09-01T01:33:16;2.83;;;1.08;;
51764;SDS011;37835;53.256;6.456;2022-09-01T01:35:42;2.97;;;1.00;;
51764;SDS011;37835;53.256;6.456;2022-09-01T01:38:09;1.10;;;1.00;;
51764;SDS011;37835;53.256;6.456;2022-09-01T01:40:35;2.10;;;1.20;;
51764;SDS011;37835;53.256;6.456;2022-09-01T01:43:02;1.30;;;1.20;;
51764;SDS011;37835;53.256;6.456;2022-09-01T01:45:28;1.95;;;1.13;;
51764;SDS011;37835;53.256;6.456;2022-09-01T01:47:54;1.30;;;1.20;;
51764;SDS011;37835;53.256;6.456;2022-09-01T01:50:21;3.08;;;1.20;;
51764;SDS011;37835;53.256;6.456;2022-09-01T01:52:49;1.40;;;1.25;;
51764;SDS011;37835;53.256;6.456;2022-09-01T01:55:15;2.88;;;1.17;;
51764;SDS011;37835;53.256;6.456;2022-09-01T01:57:43;3.22;;;1.00;;
51764;SDS011;37835;53.256;6.456;2022-09-01T02:00:17;2.58;;;1.23;;
51764;SDS011;37835;53.256;6.456;2022-09-01T02:02:48;2.08;;;1.20;;
51764;SDS011;37835;53.256;6.456;2022-09-01T02:05:22;1.67;;;1.00;;
51764;SDS011;37835;53.256;6.456;2022-09-01T02:07:56;3.03;;;1.23;;
51764;SDS011;37835;53.256;6.456;2022-09-01T02:10:29;0.90;;;0.90;;
51764;SDS011;37835;53.256;6.456;2022-09-01T02:13:00;3.53;;;1.05;;
51764;SDS011;37835;53.256;6.456;2022-09-01T02:15:36;1.50;;;1.30;;
51764;SDS011;37835;53.256;6.456;2022-09-01T02:18:19;1.40;;;1.20;;
51764;SDS011;37835;53.256;6.456;2022-09-01T02:20:49;1.30;;;1.00;;
51764;SDS011;37835;53.256;6.456;2022-09-01T02:23:16;1.60;;;0.98;;
51764;SDS011;37835;53.256;6.456;2022-09-01T02:25:47;1.05;;;1.05;;
51764;SDS011;37835;53.256;6.456;2022-09-01T02:28:15;1.70;;;0.88;;
51764;SDS011;37835;53.256;6.456;2022-09-01T02:30:42;2.58;;;1.15;;
51764;SDS011;37835;53.256;6.456;2022-09-01T02:33:10;1.10;;;1.00;;
51764;SDS011;37835;53.256;6.456;2022-09-01T02:35:42;4.78;;;1.02;;
51764;SDS011;37835;53.256;6.456;2022-09-01T02:38:09;4.72;;;1.10;;
51764;SDS011;37835;53.256;6.456;2022-09-01T02:40:38;3.15;;;1.10;;
51764;SDS011;37835;53.256;6.456;2022-09-01T02:43:08;0.93;;;0.80;;
51764;SDS011;37835;53.256;6.456;2022-09-01T02:45:36;1.20;;;1.10;;
51764;SDS011;37835;53.256;6.456;2022-09-01T02:48:02;1.63;;;1.20;;
51764;SDS011;37835;53.256;6.456;2022-09-01T02:50:34;3.92;;;1.15;;
51764;SDS011;37835;53.256;6.456;2022-09-01T02:53:00;3.67;;;1.00;;
51764;SDS011;37835;53.256;6.456;2022-09-01T02:55:26;1.13;;;0.77;;
51764;SDS011;37835;53.256;6.456;2022-09-01T02:57:52;2.15;;;0.90;;
51764;SDS011;37835;53.256;6.456;2022-09-01T03:00:21;3.92;;;1.08;;
51764;SDS011;37835;53.256;6.456;2022-09-01T03:02:54;1.90;;;0.85;;
51764;SDS011;37835;53.256;6.456;2022-09-01T03:05:22;1.05;;;0.98;;
51764;SDS011;37835;53.256;6.456;2022-09-01T03:07:54;1.00;;;1.00;;
51764;SDS011;37835;53.256;6.456;2022-09-01T03:10:27;1.30;;;1.05;;
51764;SDS011;37835;53.256;6.456;2022-09-01T03:13:02;0.95;;;0.95;;
51764;SDS011;37835;53.256;6.456;2022-09-01T03:15:30;2.22;;;1.10;;
51764;SDS011;37835;53.256;6.456;2022-09-01T03:17:58;0.90;;;0.90;;
51764;SDS011;37835;53.256;6.456;2022-09-01T03:20:25;1.90;;;1.10;;
51764;SDS011;37835;53.256;6.456;2022-09-01T03:22:52;5.05;;;1.08;;
51764;SDS011;37835;53.256;6.456;2022-09-01T03:25:17;1.50;;;1.25;;
51764;SDS011;37835;53.256;6.456;2022-09-01T03:27:43;1.90;;;1.00;;
51764;SDS011;37835;53.256;6.456;2022-09-01T03:30:10;2.22;;;0.98;;
51764;SDS011;37835;53.256;6.456;2022-09-01T03:32:36;1.13;;;1.13;;
51764;SDS011;37835;53.256;6.456;2022-09-01T03:35:02;1.10;;;0.98;;
51764;SDS011;37835;53.256;6.456;2022-09-01T03:37:28;1.63;;;1.23;;
51764;SDS011;37835;53.256;6.456;2022-09-01T03:39:54;2.05;;;1.20;;
51764;SDS011;37835;53.256;6.456;2022-09-01T03:42:19;1.60;;;1.30;;
51764;SDS011;37835;53.256;6.456;2022-09-01T03:44:50;1.58;;;1.48;;
51764;SDS011;37835;53.256;6.456;2022-09-01T03:47:17;6.50;;;1.50;;
51764;SDS011;37835;53.256;6.456;2022-09-01T03:49:45;1.13;;;1.10;;
51764;SDS011;37835;53.256;6.456;2022-09-01T03:52:13;2.80;;;1.38;;
51764;SDS011;37835;53.256;6.456;2022-09-01T03:54:39;1.70;;;1.60;;
51764;SDS011;37835;53.256;6.456;2022-09-01T03:57:05;2.95;;;1.40;;
51764;SDS011;37835;53.256;6.456;2022-09-01T03:59:33;2.55;;;1.40;;
51764;SDS011;37835;53.256;6.456;2022-09-01T04:02:00;1.52;;;1.23;;
51764;SDS011;37835;53.256;6.456;2022-09-01T04:04:27;1.67;;;1.48;;
51764;SDS011;37835;53.256;6.456;2022-09-01T04:06:56;4.28;;;1.58;;
51764;SDS011;37835;53.256;6.456;2022-09-01T04:09:23;4.32;;;1.40;;
51764;SDS011;37835;53.256;6.456;2022-09-01T04:11:50;5.22;;;1.60;;
51764;SDS011;37835;53.256;6.456;2022-09-01T04:14:15;2.55;;;1.63;;
51764;SDS011;37835;53.256;6.456;2022-09-01T04:16:41;2.20;;;1.60;;
51764;SDS011;37835;53.256;6.456;2022-09-01T04:19:26;2.03;;;1.80;;
51764;SDS011;37835;53.256;6.456;2022-09-01T04:21:55;3.80;;;1.45;;
51764;SDS011;37835;53.256;6.456;2022-09-01T04:24:24;2.28;;;1.75;;
51764;SDS011;37835;53.256;6.456;2022-09-01T04:26:52;4.65;;;1.65;;
51764;SDS011;37835;53.256;6.456;2022-09-01T04:29:20;2.97;;;1.48;;
51764;SDS011;37835;53.256;6.456;2022-09-01T04:31:54;2.67;;;1.83;;
51764;SDS011;37835;53.256;6.456;2022-09-01T04:34:26;3.70;;;2.00;;
51764;SDS011;37835;53.256;6.456;2022-09-01T04:36:52;6.97;;;2.10;;
51764;SDS011;37835;53.256;6.456;2022-09-01T04:39:20;2.15;;;1.58;;
51764;SDS011;37835;53.256;6.456;2022-09-01T04:41:46;5.20;;;1.80;;
51764;SDS011;37835;53.256;6.456;2022-09-01T04:44:14;2.85;;;2.17;;
51764;SDS011;37835;53.256;6.456;2022-09-01T04:46:43;4.40;;;1.77;;
51764;SDS011;37835;53.256;6.456;2022-09-01T04:49:12;4.88;;;1.90;;
51764;SDS011;37835;53.256;6.456;2022-09-01T04:51:44;6.65;;;1.88;;
51764;SDS011;37835;53.256;6.456;2022-09-01T04:54:12;6.68;;;2.50;;
51764;SDS011;37835;53.256;6.456;2022-09-01T04:56:39;4.63;;;1.90;;
51764;SDS011;37835;53.256;6.456;2022-09-01T04:59:07;4.18;;;1.90;;
51764;SDS011;37835;53.256;6.456;2022-09-01T05:01:35;5.03;;;2.17;;
51764;SDS011;37835;53.256;6.456;2022-09-01T05:04:09;5.57;;;2.15;;
51764;SDS011;37835;53.256;6.456;2022-09-01T05:06:38;2.78;;;2.30;;
51764;SDS011;37835;53.256;6.456;2022-09-01T05:09:05;3.92;;;2.03;;
51764;SDS011;37835;53.256;6.456;2022-09-01T05:11:33;3.33;;;2.40;;
51764;SDS011;37835;53.256;6.456;2022-09-01T05:14:01;3.58;;;2.38;;
51764;SDS011;37835;53.256;6.456;2022-09-01T05:16:29;3.60;;;2.00;;
51764;SDS011;37835;53.256;6.456;2022-09-01T05:18:55;6.45;;;1.90;;
51764;SDS011;37835;53.256;6.456;2022-09-01T05:21:22;3.97;;;2.05;;
51764;SDS011;37835;53.256;6.456;2022-09-01T05:23:52;3.83;;;2.40;;
51764;SDS011;37835;53.256;6.456;2022-09-01T05:26:23;3.20;;;2.50;;
51764;SDS011;37835;53.256;6.456;2022-09-01T05:28:53;3.58;;;2.35;;
51764;SDS011;37835;53.256;6.456;2022-09-01T05:31:22;2.45;;;2.28;;
51764;SDS011;37835;53.256;6.456;2022-09-01T05:33:50;7.50;;;2.28;;
51764;SDS011;37835;53.256;6.456;2022-09-01T05:36:17;4.03;;;2.15;;
51764;SDS011;37835;53.256;6.456;2022-09-01T05:38:44;4.97;;;2.33;;
51764;SDS011;37835;53.256;6.456;2022-09-01T05:41:12;2.80;;;2.13;;
51764;SDS011;37835;53.256;6.456;2022-09-01T05:43:39;3.03;;;2.20;;
51764;SDS011;37835;53.256;6.456;2022-09-01T05:46:12;3.10;;;2.00;;
51764;SDS011;37835;53.256;6.456;2022-09-01T05:48:41;2.58;;;2.35;;
51764;SDS011;37835;53.256;6.456;2022-09-01T05:51:08;4.88;;;2.08;;
51764;SDS011;37835;53.256;6.456;2022-09-01T05:53:35;2.40;;;2.30;;
51764;SDS011;37835;53.256;6.456;2022-09-01T05:56:04;3.78;;;2.20;;
51764;SDS011;37835;53.256;6.456;2022-09-01T05:58:32;4.93;;;2.38;;
51764;SDS011;37835;53.256;6.456;2022-09-01T06:01:03;6.32;;;2.33;;
51764;SDS011;37835;53.256;6.456;2022-09-01T06:03:29;3.70;;;2.20;;
51764;SDS011;37835;53.256;6.456;2022-09-01T06:06:00;3.28;;;2.20;;
51764;SDS011;37835;53.256;6.456;2022-09-01T06:08:32;4.57;;;2.28;;
51764;SDS011;37835;53.256;6.456;2022-09-01T06:10:59;4.95;;;2.08;;
51764;SDS011;37835;53.256;6.456;2022-09-01T06:13:25;6.40;;;2.47;;
51764;SDS011;37835;53.256;6.456;2022-09-01T06:15:51;2.42;;;2.22;;
51764;SDS011;37835;53.256;6.456;2022-09-01T06:18:22;3.35;;;2.33;;
51764;SDS011;37835;53.256;6.456;2022-09-01T06:20:48;3.15;;;2.05;;
51764;SDS011;37835;53.256;6.456;2022-09-01T06:23:14;3.97;;;2.25;;
51764;SDS011;37835;53.256;6.456;2022-09-01T06:25:42;3.35;;;1.85;;
51764;SDS011;37835;53.256;6.456;2022-09-01T06:28:17;2.58;;;1.98;;
51764;SDS011;37835;53.256;6.456;2022-09-01T06:30:45;6.28;;;2.22;;
51764;SDS011;37835;53.256;6.456;2022-09-01T06:33:12;4.15;;;2.10;;
51764;SDS011;37835;53.256;6.456;2022-09-01T06:35:38;7.07;;;2.15;;
51764;SDS011;37835;53.256;6.456;2022-09-01T06:38:06;2.22;;;2.13;;
51764;SDS011;37835;53.256;6.456;2022-09-01T06:40:36;2.63;;;2.40;;
51764;SDS011;37835;53.256;6.456;2022-09-01T06:43:03;3.15;;;2.15;;
51764;SDS011;37835;53.256;6.456;2022-09-01T06:45:32;2.30;;;2.10;;
51764;SDS011;37835;53.256;6.456;2022-09-01T06:48:03;4.55;;;2.08;;
51764;SDS011;37835;53.256;6.456;2022-09-01T06:50:28;5.45;;;2.15;;
51764;SDS011;37835;53.256;6.456;2022-09-01T06:52:54;4.57;;;2.00;;
51764;SDS011;37835;53.256;6.456;2022-09-01T06:55:32;3.47;;;1.80;;
51764;SDS011;37835;53.256;6.456;2022-09-01T06:58:02;2.78;;;2.40;;
51764;SDS011;37835;53.256;6.456;2022-09-01T07:00:33;2.92;;;2.10;;
51764;SDS011;37835;53.256;6.456;2022-09-01T07:03:06;5.40;;;2.28;;
51764;SDS011;37835;53.256;6.456;2022-09-01T07:05:36;9.60;;;2.13;;
51764;SDS011;37835;53.256;6.456;2022-09-01T07:08:03;4.90;;;2.20;;
51764;SDS011;37835;53.256;6.456;2022-09-01T07:10:32;3.00;;;2.17;;
51764;SDS011;37835;53.256;6.456;2022-09-01T07:12:59;3.85;;;2.30;;
51764;SDS011;37835;53.256;6.456;2022-09-01T07:15:25;3.45;;;2.15;;
51764;SDS011;37835;53.256;6.456;2022-09-01T07:17:54;7.32;;;2.10;;
51764;SDS011;37835;53.256;6.456;2022-09-01T07:20:23;4.85;;;1.90;;
51764;SDS011;37835;53.256;6.456;2022-09-01T07:22:51;5.70;;;2.20;;
51764;SDS011;37835;53.256;6.456;2022-09-01T07:25:18;2.85;;;2.00;;
51764;SDS011;37835;53.256;6.456;2022-09-01T07:27:44;2.17;;;1.48;;
51764;SDS011;37835;53.256;6.456;2022-09-01T07:30:14;4.28;;;1.65;;
51764;SDS011;37835;53.256;6.456;2022-09-01T07:32:44;1.52;;;1.40;;
51764;SDS011;37835;53.256;6.456;2022-09-01T07:35:14;2.35;;;1.50;;
51764;SDS011;37835;53.256;6.456;2022-09-01T07:37:42;4.13;;;1.73;;
51764;SDS011;37835;53.256;6.456;2022-09-01T07:40:12;3.42;;;1.50;;
51764;SDS011;37835;53.256;6.456;2022-09-01T07:42:47;1.65;;;1.50;;
51764;SDS011;37835;53.256;6.456;2022-09-01T07:45:17;4.63;;;1.50;;
51764;SDS011;37835;53.256;6.456;2022-09-01T07:47:43;1.90;;;1.73;;
51764;SDS011;37835;53.256;6.456;2022-09-01T07:50:10;2.90;;;1.67;;
51764;SDS011;37835;53.256;6.456;2022-09-01T07:52:39;3.75;;;1.70;;
51764;SDS011;37835;53.256;6.456;2022-09-01T07:55:09;1.65;;;1.55;;
51764;SDS011;37835;53.256;6.456;2022-09-01T07:57:37;3.00;;;1.90;;
51764;SDS011;37835;53.256;6.456;2022-09-01T08:00:06;1.77;;;1.67;;
51764;SDS011;37835;53.256;6.456;2022-09-01T08:02:35;2.53;;;1.60;;
51764;SDS011;37835;53.256;6.456;2022-09-01T08:05:03;2.78;;;1.88;;
51764;SDS011;37835;53.256;6.456;2022-09-01T08:07:34;3.92;;;1.70;;
51764;SDS011;37835;53.256;6.456;2022-09-01T08:10:00;2.80;;;2.05;;
51764;SDS011;37835;53.256;6.456;2022-09-01T08:12:28;4.40;;;3.55;;
51764;SDS011;37835;53.256;6.456;2022-09-01T08:14:53;3.75;;;2.70;;
51764;SDS011;37835;53.256;6.456;2022-09-01T08:17:19;3.55;;;2.30;;
51764;SDS011;37835;53.256;6.456;2022-09-01T08:19:45;1.88;;;1.65;;
51764;SDS011;37835;53.256;6.456;2022-09-01T08:22:11;4.53;;;1.45;;
51764;SDS011;37835;53.256;6.456;2022-09-01T08:24:37;4.10;;;1.65;;
51764;SDS011;37835;53.256;6.456;2022-09-01T08:27:03;4.97;;;1.50;;
51764;SDS011;37835;53.256;6.456;2022-09-01T08:29:29;2.50;;;1.30;;
51764;SDS011;37835;53.256;6.456;2022-09-01T08:31:55;1.73;;;1.63;;
51764;SDS011;37835;53.256;6.456;2022-09-01T08:34:23;1.70;;;1.60;;
51764;SDS011;37835;53.256;6.456;2022-09-01T08:36:52;1.67;;;1.58;;
51764;SDS011;37835;53.256;6.456;2022-09-01T08:39:18;3.67;;;1.50;;
51764;SDS011;37835;53.256;6.456;2022-09-01T08:41:46;4.38;;;1.33;;
51764;SDS011;37835;53.256;6.456;2022-09-01T08:47:11;3.15;;;1.38;;
51764;SDS011;37835;53.256;6.456;2022-09-01T08:49:40;1.98;;;1.70;;
51764;SDS011;37835;53.256;6.456;2022-09-01T08:54:48;5.43;;;1.95;;
51764;SDS011;37835;53.256;6.456;2022-09-01T09:00:04;2.78;;;1.50;;
51764;SDS011;37835;53.256;6.456;2022-09-01T09:08:07;6.95;;;1.70;;
51764;SDS011;37835;53.256;6.456;2022-09-01T09:10:47;4.50;;;1.70;;
51764;SDS011;37835;53.256;6.456;2022-09-01T09:16:09;4.00;;;1.67;;
51764;SDS011;37835;53.256;6.456;2022-09-01T09:18:53;5.18;;;2.10;;
51764;SDS011;37835;53.256;6.456;2022-09-01T09:21:23;1.95;;;1.50;;
51764;SDS011;37835;53.256;6.456;2022-09-01T09:24:30;3.25;;;1.42;;
51764;SDS011;37835;53.256;6.456;2022-09-01T09:27:22;4.05;;;1.67;;
51764;SDS011;37835;53.256;6.456;2022-09-01T09:29:54;5.25;;;1.30;;
51764;SDS011;37835;53.256;6.456;2022-09-01T09:32:42;2.35;;;1.13;;
51764;SDS011;37835;53.256;6.456;2022-09-01T09:35:31;1.58;;;1.10;;
51764;SDS011;37835;53.256;6.456;2022-09-01T09:43:33;3.80;;;1.10;;
51764;SDS011;37835;53.256;6.456;2022-09-01T09:48:49;1.20;;;1.08;;
51764;SDS011;37835;53.256;6.456;2022-09-01T09:51:40;1.15;;;0.95;;
51764;SDS011;37835;53.256;6.456;2022-09-01T09:54:12;3.20;;;1.38;;
51764;SDS011;37835;53.256;6.456;2022-09-01T09:56:41;2.45;;;1.13;;
51764;SDS011;37835;53.256;6.456;2022-09-01T09:59:30;3.42;;;1.00;;
51764;SDS011;37835;53.256;6.456;2022-09-01T10:01:58;2.53;;;1.02;;
51764;SDS011;37835;53.256;6.456;2022-09-01T10:04:39;4.55;;;0.95;;
51764;SDS011;37835;53.256;6.456;2022-09-01T10:07:22;2.75;;;1.08;;
51764;SDS011;37835;53.256;6.456;2022-09-01T10:09:48;4.68;;;1.02;;
51764;SDS011;37835;53.256;6.456;2022-09-01T10:12:14;1.30;;;0.80;;
51764;SDS011;37835;53.256;6.456;2022-09-01T10:14:41;2.17;;;0.68;;
51764;SDS011;37835;53.256;6.456;2022-09-01T10:17:12;2.00;;;0.65;;
51764;SDS011;37835;53.256;6.456;2022-09-01T10:19:52;4.47;;;0.50;;
51764;SDS011;37835;53.256;6.456;2022-09-01T10:22:29;2.00;;;0.63;;
51764;SDS011;37835;53.256;6.456;2022-09-01T10:24:56;5.43;;;0.57;;
51764;SDS011;37835;53.256;6.456;2022-09-01T10:27:24;1.10;;;0.65;;
51764;SDS011;37835;53.256;6.456;2022-09-01T10:30:03;1.63;;;0.50;;
51764;SDS011;37835;53.256;6.456;2022-09-01T10:32:51;0.85;;;0.65;;
51764;SDS011;37835;53.256;6.456;2022-09-01T10:35:24;0.70;;;0.47;;
51764;SDS011;37835;53.256;6.456;2022-09-01T10:37:59;0.88;;;0.40;;
51764;SDS011;37835;53.256;6.456;2022-09-01T10:40:41;2.95;;;0.30;;
51764;SDS011;37835;53.256;6.456;2022-09-01T10:43:24;1.13;;;0.40;;
51764;SDS011;37835;53.256;6.456;2022-09-01T10:45:51;1.05;;;0.40;;
51764;SDS011;37835;53.256;6.456;2022-09-01T10:50:48;0.47;;;0.40;;
51764;SDS011;37835;53.256;6.456;2022-09-01T10:56:07;0.68;;;0.30;;
51764;SDS011;37835;53.256;6.456;2022-09-01T11:04:09;0.93;;;0.60;;
51764;SDS011;37835;53.256;6.456;2022-09-01T11:06:58;0.30;;;0.30;;
51764;SDS011;37835;53.256;6.456;2022-09-01T11:09:39;0.77;;;0.50;;
51764;SDS011;37835;53.256;6.456;2022-09-01T11:12:28;0.95;;;0.30;;
51764;SDS011;37835;53.256;6.456;2022-09-01T11:17:53;0.75;;;0.30;;
51764;SDS011;37835;53.256;6.456;2022-09-01T11:23:01;0.50;;;0.40;;
51764;SDS011;37835;53.256;6.456;2022-09-01T11:30:40;1.40;;;0.30;;
51764;SDS011;37835;53.256;6.456;2022-09-01T11:35:40;3.13;;;0.40;;
51764;SDS011;37835;53.256;6.456;2022-09-01T11:38:11;1.40;;;0.27;;
51764;SDS011;37835;53.256;6.456;2022-09-01T11:40:52;1.33;;;0.38;;
51764;SDS011;37835;53.256;6.456;2022-09-01T11:43:19;1.33;;;0.50;;
51764;SDS011;37835;53.256;6.456;2022-09-01T11:48:46;1.90;;;0.35;;
51764;SDS011;37835;53.256;6.456;2022-09-01T11:51:13;3.25;;;0.30;;
51764;SDS011;37835;53.256;6.456;2022-09-01T11:53:39;1.58;;;0.40;;
51764;SDS011;37835;53.256;6.456;2022-09-01T11:56:13;0.93;;;0.40;;
51764;SDS011;37835;53.256;6.456;2022-09-01T11:58:50;1.35;;;0.63;;
51764;SDS011;37835;53.256;6.456;2022-09-01T12:01:23;1.17;;;0.35;;
51764;SDS011;37835;53.256;6.456;2022-09-01T12:04:23;2.38;;;0.40;;
51764;SDS011;37835;53.256;6.456;2022-09-01T12:07:02;2.65;;;0.50;;
51764;SDS011;37835;53.256;6.456;2022-09-01T12:09:43;0.75;;;0.30;;
51764;SDS011;37835;53.256;6.456;2022-09-01T12:15:05;3.05;;;0.40;;
51764;SDS011;37835;53.256;6.456;2022-09-01T12:17:34;1.00;;;0.32;;
51764;SDS011;37835;53.256;6.456;2022-09-01T12:22:45;0.63;;;0.32;;
51764;SDS011;37835;53.256;6.456;2022-09-01T12:25:21;1.02;;;0.30;;
51764;SDS011;37835;53.256;6.456;2022-09-01T12:27:55;1.13;;;0.55;;
51764;SDS011;37835;53.256;6.456;2022-09-01T12:30:24;2.08;;;0.50;;
51764;SDS011;37835;53.256;6.456;2022-09-01T12:32:50;0.85;;;0.30;;
51764;SDS011;37835;53.256;6.456;2022-09-01T12:35:22;4.68;;;0.52;;
51764;SDS011;37835;53.256;6.456;2022-09-01T12:37:50;0.40;;;0.30;;
51764;SDS011;37835;53.256;6.456;2022-09-01T12:40:21;2.30;;;0.40;;
51764;SDS011;37835;53.256;6.456;2022-09-01T12:42:55;2.45;;;0.40;;
51764;SDS011;37835;53.256;6.456;2022-09-01T12:45:40;2.42;;;0.57;;
51764;SDS011;37835;53.256;6.456;2022-09-01T12:50:55;4.32;;;0.32;;
51764;SDS011;37835;53.256;6.456;2022-09-01T12:53:25;3.78;;;0.50;;
51764;SDS011;37835;53.256;6.456;2022-09-01T12:55:54;0.95;;;0.47;;
51764;SDS011;37835;53.256;6.456;2022-09-01T12:58:24;0.77;;;0.40;;
51764;SDS011;37835;53.256;6.456;2022-09-01T13:01:04;5.10;;;0.50;;
51764;SDS011;37835;53.256;6.456;2022-09-01T13:03:32;5.68;;;0.50;;
51764;SDS011;37835;53.256;6.456;2022-09-01T13:06:00;3.25;;;0.38;;
51764;SDS011;37835;53.256;6.456;2022-09-01T13:08:28;0.65;;;0.32;;
51764;SDS011;37835;53.256;6.456;2022-09-01T13:11:01;3.20;;;0.30;;
51764;SDS011;37835;53.256;6.456;2022-09-01T13:13:31;0.98;;;0.22;;
51764;SDS011;37835;53.256;6.456;2022-09-01T13:15:59;2.45;;;0.40;;
51764;SDS011;37835;53.256;6.456;2022-09-01T13:18:28;1.00;;;0.60;;
51764;SDS011;37835;53.256;6.456;2022-09-01T13:20:54;4.70;;;0.52;;
51764;SDS011;37835;53.256;6.456;2022-09-01T13:23:21;5.38;;;0.47;;
51764;SDS011;37835;53.256;6.456;2022-09-01T13:25:47;7.70;;;0.60;;
51764;SDS011;37835;53.256;6.456;2022-09-01T13:28:13;4.80;;;0.55;;
51764;SDS011;37835;53.256;6.456;2022-09-01T13:30:42;2.83;;;0.50;;
51764;SDS011;37835;53.256;6.456;2022-09-01T13:33:09;3.17;;;0.50;;
51764;SDS011;37835;53.256;6.456;2022-09-01T13:35:36;2.95;;;0.43;;
51764;SDS011;37835;53.256;6.456;2022-09-01T13:38:05;0.95;;;0.50;;
51764;SDS011;37835;53.256;6.456;2022-09-01T13:40:31;1.55;;;0.40;;
51764;SDS011;37835;53.256;6.456;2022-09-01T13:42:57;0.70;;;0.38;;
51764;SDS011;37835;53.256;6.456;2022-09-01T13:45:23;2.60;;;0.52;;
51764;SDS011;37835;53.256;6.456;2022-09-01T13:47:49;5.38;;;0.40;;
51764;SDS011;37835;53.256;6.456;2022-09-01T13:50:16;1.67;;;0.40;;
51764;SDS011;37835;53.256;6.456;2022-09-01T13:52:46;0.77;;;0.35;;
51764;SDS011;37835;53.256;6.456;2022-09-01T13:55:19;1.55;;;0.45;;
51764;SDS011;37835;53.256;6.456;2022-09-01T13:57:53;0.82;;;0.38;;
51764;SDS011;37835;53.256;6.456;2022-09-01T14:00:21;0.60;;;0.22;;
51764;SDS011;37835;53.256;6.456;2022-09-01T14:02:49;0.85;;;0.43;;
51764;SDS011;37835;53.256;6.456;2022-09-01T14:05:24;2.88;;;0.30;;
51764;SDS011;37835;53.256;6.456;2022-09-01T14:07:51;1.55;;;0.30;;
51764;SDS011;37835;53.256;6.456;2022-09-01T14:10:18;3.17;;;0.45;;
51764;SDS011;37835;53.256;6.456;2022-09-01T14:12:44;0.60;;;0.30;;
51764;SDS011;37835;53.256;6.456;2022-09-01T14:15:11;1.80;;;0.50;;
51764;SDS011;37835;53.256;6.456;2022-09-01T14:17:37;12.02;;;0.70;;
51764;SDS011;37835;53.256;6.456;2022-09-01T14:20:04;2.58;;;0.30;;
51764;SDS011;37835;53.256;6.456;2022-09-01T14:22:32;2.70;;;0.47;;
51764;SDS011;37835;53.256;6.456;2022-09-01T14:24:58;3.83;;;0.38;;
51764;SDS011;37835;53.256;6.456;2022-09-01T14:27:24;0.77;;;0.52;;
51764;SDS011;37835;53.256;6.456;2022-09-01T14:29:51;1.63;;;0.50;;
51764;SDS011;37835;53.256;6.456;2022-09-01T14:32:19;5.10;;;0.45;;
51764;SDS011;37835;53.256;6.456;2022-09-01T14:34:48;2.63;;;0.35;;
51764;SDS011;37835;53.256;6.456;2022-09-01T14:37:14;2.60;;;0.40;;
51764;SDS011;37835;53.256;6.456;2022-09-01T14:39:40;2.55;;;0.22;;
51764;SDS011;37835;53.256;6.456;2022-09-01T14:42:06;6.22;;;0.52;;
51764;SDS011;37835;53.256;6.456;2022-09-01T14:44:37;0.60;;;0.30;;
51764;SDS011;37835;53.256;6.456;2022-09-01T14:47:03;1.98;;;0.43;;
51764;SDS011;37835;53.256;6.456;2022-09-01T14:49:30;0.50;;;0.20;;
51764;SDS011;37835;53.256;6.456;2022-09-01T14:51:59;3.67;;;0.40;;
51764;SDS011;37835;53.256;6.456;2022-09-01T14:54:28;1.10;;;0.30;;
51764;SDS011;37835;53.256;6.456;2022-09-01T14:56:54;0.73;;;0.63;;
51764;SDS011;37835;53.256;6.456;2022-09-01T14:59:20;2.08;;;0.30;;
51764;SDS011;37835;53.256;6.456;2022-09-01T15:01:45;0.30;;;0.30;;
51764;SDS011;37835;53.256;6.456;2022-09-01T15:04:12;1.30;;;0.30;;
51764;SDS011;37835;53.256;6.456;2022-09-01T15:06:37;2.83;;;0.20;;
51764;SDS011;37835;53.256;6.456;2022-09-01T15:09:03;1.58;;;0.30;;
51764;SDS011;37835;53.256;6.456;2022-09-01T15:11:28;4.35;;;0.28;;
51764;SDS011;37835;53.256;6.456;2022-09-01T15:13:54;1.02;;;0.28;;
51764;SDS011;37835;53.256;6.456;2022-09-01T15:16:22;7.13;;;0.47;;
51764;SDS011;37835;53.256;6.456;2022-09-01T15:18:52;0.30;;;0.22;;
51764;SDS011;37835;53.256;6.456;2022-09-01T15:21:23;4.78;;;0.43;;
51764;SDS011;37835;53.256;6.456;2022-09-01T15:24:01;4.93;;;0.40;;
51764;SDS011;37835;53.256;6.456;2022-09-01T15:26:27;1.92;;;0.25;;
51764;SDS011;37835;53.256;6.456;2022-09-01T15:28:54;2.72;;;0.20;;
51764;SDS011;37835;53.256;6.456;2022-09-01T15:31:21;4.55;;;0.40;;
51764;SDS011;37835;53.256;6.456;2022-09-01T15:33:48;1.35;;;0.30;;
51764;SDS011;37835;53.256;6.456;2022-09-01T15:36:18;1.00;;;0.40;;
51764;SDS011;37835;53.256;6.456;2022-09-01T15:38:45;1.95;;;0.35;;
51764;SDS011;37835;53.256;6.456;2022-09-01T15:41:18;1.02;;;0.30;;
51764;SDS011;37835;53.256;6.456;2022-09-01T15:43:45;1.30;;;0.30;;
51764;SDS011;37835;53.256;6.456;2022-09-01T15:46:11;3.88;;;0.30;;
51764;SDS011;37835;53.256;6.456;2022-09-01T15:48:38;1.30;;;0.43;;
51764;SDS011;37835;53.256;6.456;2022-09-01T15:53:52;1.65;;;0.30;;
51764;SDS011;37835;53.256;6.456;2022-09-01T15:58:46;0.30;;;0.20;;
51764;SDS011;37835;53.256;6.456;2022-09-01T16:01:12;3.70;;;0.63;;
51764;SDS011;37835;53.256;6.456;2022-09-01T16:03:38;5.35;;;0.35;;
51764;SDS011;37835;53.256;6.456;2022-09-01T16:06:04;3.88;;;0.30;;
51764;SDS011;37835;53.256;6.456;2022-09-01T16:08:30;0.57;;;0.20;;
51764;SDS011;37835;53.256;6.456;2022-09-01T16:10:56;1.77;;;0.30;;